Terminal Aerodrome Forecast
Issued by NWS Missoula, MT

Home | Current Version | Previous Version | Text Only | Print | Product List | Glossary On
Versions: 1 2 3 4 5 6 7 8 9 10 11 12 13 14 15 16 17 18 19 20 21
000
FTUS45 KMSO 271508 AAB
TAFGPI
TAF AMD
KGPI 271508Z 2715/2812 VRB03KT 4SM BR SCT001
      TEMPO 2715/2717 1/4SM FG SCT001 BKN003
     FM271800 VRB03KT P6SM BKN150
     FM272000 20008KT P6SM BKN100
     FM280800 VRB05KT P6SM VCSH OVC050=

USA.gov is the U.S. government's official web portal to all federal, state and local government web resources and services.